Airfield :
LOGIN :

Register | Disclaimer

   EN    FR    IT 

 










Legend :    VFR   Marginal VFR   IFR   Intensive IFR   Very Intensive IFR
Visi :
Ceiling :
>= 8 km
>= 3000ft
5 to 8 km
1000 to 3000 ft
1500m to 5 km
500 to 1000 ft
800 to 1500m
200 to 500 ft
< 800m
< 200 ft
Symbols :   Thunderstorms  Fog  Heavy snow  Heavy precipitations  Wind > 20 kt
SIGMETs :     Misc.  Thunderstorms  Icing  Turbulence  Mountain Waves  Volcanic Ashes






- Airport Elevation : 112 ft
- IATA code : KIR


EIKY - Kerry Farranfore

CURRENT METAR :
  • 101500Z 26010KT 9999 FEW010 SCT026 06/04 Q1000

EXPIRED METARs :
  • 101330Z 26012KT 9999 -RA FEW025 OVC034 08/06 Q0999
  • 101300Z 27010KT 240V310 9999 -RA BKN018 08/06 Q0999
  • 101230Z 27009KT 9999 -RA BKN025 08/07 Q0998

TAF TAF EIKY
Valid from the 10 at 15:00 until the 11 at 00:00 UTC


101400Z 1015/1024 26015G25KT 9999 FEW010 BKN020
TEMPO 1015/1021 27020G35KT
TEMPO 1015/1024 5000 SHRA BKN012 SCT018CB
TEMPO 1022/1024 24020G30KT



MET'MAP, your aeronautical weather chart ! - Copyright ORBIFLY December 2007 - Disclaimer

ORBIFLY MET'MAP TEAM :

Programming & Development : Alexandra Zaïnal
Concept & original design : Baudouin d'Aumeries
Assistance for programming : Marc-Olivier Méhu
Technical & hardware support : Manuel Goepfert

Contact : metmap@orbifly.com




SOURCES & CREDITS :

   NOAA